Latest Weather Observations for North Head

IDN60801

Issued at 4:35 pm EDT Sunday 23 November 2014 (issued every 30 minutes, with the page automatically refreshed every 10 minutes)

About weather observations | Map of weather stations | Latest weather observations for NSW | Other Formats
Station Details ID: 066197 Name: NORTH HEAD Lat: -33.82 Lon: 151.30 Height: 90.0 m
Data from the previous 72 hours. | See also: Recent months for locations in New South Wales
Date/Time
EDT
Temp
°C
App
Temp
°C
Dew
Point
Rel
Hum
%
Delta-T
°C
Wind Press
QNH
hPa
Press
MSL
hPa
Rain
since 9 am
mm
Dir
 
Spd
km/h
Gust
km/h
Spd
kts
Gust
kts
23/04:30pm - - - - - ESE 20 24 11 13 - - -
23/04:00pm - - - - - NNE 26 37 14 20 - - -
23/03:30pm - - - - - NNE 22 30 12 16 - - -
23/03:00pm - - - - - NNE 26 33 14 18 - - -
23/02:30pm - - - - - NNE 26 32 14 17 - - -
23/02:00pm - - - - - NNE 24 32 13 17 - - -
23/01:30pm - - - - - NNE 20 26 11 14 - - -
23/01:00pm - - - - - NE 17 24 9 13 - - -
23/12:30pm - - - - - ENE 11 19 6 10 - - -
23/12:00pm - - - - - ENE 11 15 6 8 - - -
23/11:30am - - - - - NE 15 20 8 11 - - -
23/11:00am - - - - - NE 15 20 8 11 - - -
23/10:30am - - - - - NE 15 20 8 11 - - -
23/10:00am - - - - - ENE 9 17 5 9 - - -
23/09:30am - - - - - E 7 11 4 6 - - -
23/09:00am - - - - - E 6 9 3 5 - - -
23/08:30am - - - - - E 4 7 2 4 - - -
23/08:00am - - - - - NW 4 7 2 4 - - -
23/07:30am - - - - - N 7 13 4 7 - - -
23/07:00am - - - - - N 2 7 1 4 - - -
23/06:30am - - - - - NNW 2 7 1 4 - - -
23/06:00am - - - - - N 6 9 3 5 - - -
23/05:30am - - - - - N 6 9 3 5 - - -
23/05:00am - - - - - N 7 11 4 6 - - -
23/04:30am - - - - - NNW 4 6 2 3 - - -
23/04:00am - - - - - NNE 4 6 2 3 - - -
23/03:30am - - - - - N 2 6 1 3 - - -
23/03:00am - - - - - NNW 2 7 1 4 - - -
23/02:30am - - - - - N 4 6 2 3 - - -
23/02:00am - - - - - N 6 9 3 5 - - -
23/01:30am - - - - - N 6 9 3 5 - - -
23/01:00am - - - - - N 6 11 3 6 - - -
23/12:30am - - - - - NW 2 6 1 3 - - -
23/12:00am - - - - - N 13 20 7 11 - - -
 
Date/Time
EDT
Temp
°C
App
Temp
°C
Dew
Point
Rel
Hum
%
Delta-T
°C
Wind Press
QNH
hPa
Press
MSL
hPa
Rain
since 9 am
mm
Dir
 
Spd
km/h
Gust
km/h
Spd
kts
Gust
kts
22/11:30pm - - - - - N 11 17 6 9 - - -
22/11:00pm - - - - - N 13 22 7 12 - - -
22/10:30pm - - - - - NNE 9 17 5 9 - - -
22/10:00pm - - - - - N 9 15 5 8 - - -
22/09:30pm - - - - - N 7 13 4 7 - - -
22/09:00pm - - - - - NNE 9 17 5 9 - - -
22/08:30pm - - - - - NE 11 17 6 9 - - -
22/08:00pm - - - - - ENE 11 17 6 9 - - -
22/07:30pm - - - - - ENE 13 19 7 10 - - -
22/07:00pm - - - - - ENE 11 19 6 10 - - -
22/06:30pm - - - - - ENE 15 22 8 12 - - -
22/06:00pm - - - - - E 17 24 9 13 - - -
22/05:30pm - - - - - E 13 22 7 12 - - -
22/05:00pm - - - - - E 13 22 7 12 - - -
22/04:30pm - - - - - ENE 19 26 10 14 - - -
22/04:00pm - - - - - E 13 20 7 11 - - -
22/03:30pm - - - - - E 15 20 8 11 - - -
22/03:00pm - - - - - E 19 26 10 14 - - -
22/02:30pm - - - - - ESE 19 22 10 12 - - -
22/02:00pm - - - - - ESE 17 22 9 12 - - -
22/01:30pm - - - - - ESE 17 22 9 12 - - -
22/01:00pm - - - - - ESE 17 20 9 11 - - -
22/12:30pm - - - - - E 15 20 8 11 - - -
22/12:00pm - - - - - ESE 13 19 7 10 - - -
22/11:30am - - - - - E 9 15 5 8 - - -
22/11:00am - - - - - E 11 15 6 8 - - -
22/10:30am - - - - - SSE 13 17 7 9 - - -
22/10:00am - - - - - S 9 13 5 7 - - -
22/09:30am - - - - - S 9 15 5 8 - - -
22/09:00am - - - - - SSE 11 17 6 9 - - -
22/08:30am - - - - - SSE 11 15 6 8 - - -
22/08:00am - - - - - S 11 17 6 9 - - -
22/07:30am - - - - - SSE 15 22 8 12 - - -
22/07:00am - - - - - S 13 20 7 11 - - -
22/06:30am - - - - - S 13 22 7 12 - - -
22/06:00am - - - - - S 15 26 8 14 - - -
22/05:30am - - - - - S 17 26 9 14 - - -
22/05:00am - - - - - S 15 22 8 12 - - -
22/04:30am - - - - - S 17 24 9 13 - - -
22/04:00am - - - - - S 15 24 8 13 - - -
22/03:30am - - - - - S 17 26 9 14 - - -
22/03:00am - - - - - S 19 30 10 16 - - -
22/02:30am - - - - - S 22 33 12 18 - - -
22/02:00am - - - - - S 20 32 11 17 - - -
22/01:30am - - - - - S 22 33 12 18 - - -
22/01:00am - - - - - S 20 35 11 19 - - -
22/12:30am - - - - - S 26 39 14 21 - - -
22/12:00am - - - - - S 28 46 15 25 - - -
 
Date/Time
EDT
Temp
°C
App
Temp
°C
Dew
Point
Rel
Hum
%
Delta-T
°C
Wind Press
QNH
hPa
Press
MSL
hPa
Rain
since 9 am
mm
Dir
 
Spd
km/h
Gust
km/h
Spd
kts
Gust
kts
21/11:35pm - - - - - S 28 46 15 25 - - -
21/11:30pm - - - - - S 30 46 16 25 - - -
21/11:26pm - - - - - S 28 46 15 25 - - -
21/11:00pm - - - - - S 32 44 17 24 - - -
21/10:38pm - - - - - S 30 48 16 26 - - -
21/10:30pm - - - - - S 32 44 17 24 - - -
21/10:00pm - - - - - S 32 50 17 27 - - -
21/09:59pm - - - - - S 32 50 17 27 - - -
21/09:30pm - - - - - S 26 41 14 22 - - -
21/09:00pm - - - - - S 28 46 15 25 - - -
21/08:56pm - - - - - S 28 48 15 26 - - -
21/08:30pm - - - - - S 33 48 18 26 - - -
21/08:07pm - - - - - S 32 50 17 27 - - -
21/08:00pm - - - - - S 32 44 17 24 - - -
21/07:30pm - - - - - S 28 43 15 23 - - -
21/07:00pm - - - - - S 26 41 14 22 - - -
21/06:36pm - - - - - S 28 48 15 26 - - -
21/06:30pm - - - - - S 30 46 16 25 - - -
21/06:16pm - - - - - S 28 44 15 24 - - -
21/06:00pm - - - - - SSE 13 20 7 11 - - -
21/05:30pm - - - - - SE 9 13 5 7 - - -
21/05:00pm - - - - - ESE 11 15 6 8 - - -
21/04:30pm - - - - - ESE 9 11 5 6 - - -
21/04:00pm - - - - - SE 11 13 6 7 - - -
21/03:30pm - - - - - ESE 11 17 6 9 - - -
21/03:00pm - - - - - ENE 13 22 7 12 - - -
21/02:30pm - - - - - ENE 15 26 8 14 - - -
21/02:00pm - - - - - ENE 11 19 6 10 - - -
21/01:30pm - - - - - ENE 13 20 7 11 - - -
21/01:00pm - - - - - E 9 17 5 9 - - -
21/12:30pm - - - - - ESE 7 13 4 7 - - -
21/12:00pm - - - - - SE 11 17 6 9 - - -
21/11:30am - - - - - SE 13 17 7 9 - - -
21/11:00am - - - - - SSE 13 19 7 10 - - -
21/10:30am - - - - - SSE 13 17 7 9 - - -
21/10:00am - - - - - S 9 15 5 8 - - -
21/09:30am - - - - - S 7 9 4 5 - - -
21/09:00am - - - - - NNW 7 13 4 7 - - -
21/08:30am - - - - - N 9 13 5 7 - - -
21/08:00am - - - - - N 9 13 5 7 - - -
21/07:30am - - - - - NW 7 9 4 5 - - -
21/07:00am - - - - - NNW 7 13 4 7 - - -
21/06:30am - - - - - WSW 13 20 7 11 - - -
21/06:00am - - - - - WNW 15 22 8 12 - - -
21/05:30am - - - - - W 26 41 14 22 - - -
21/05:00am - - - - - W 11 22 6 12 - - -
21/04:30am - - - - - W 9 13 5 7 - - -
21/04:00am - - - - - W 9 15 5 8 - - -
21/03:30am - - - - - W 11 15 6 8 - - -
21/03:00am - - - - - NW 6 7 3 4 - - -
21/02:30am - - - - - N 9 9 5 5 - - -
21/02:00am - - - - - N 7 7 4 4 - - -
21/01:30am - - - - - N 9 11 5 6 - - -
21/01:00am - - - - - N 7 7 4 4 - - -
21/12:30am - - - - - N 7 9 4 5 - - -
21/12:00am - - - - - N 9 15 5 8 - - -
 
Date/Time
EDT
Temp
°C
App
Temp
°C
Dew
Point
Rel
Hum
%
Delta-T
°C
Wind Press
QNH
hPa
Press
MSL
hPa
Rain
since 9 am
mm
Dir
 
Spd
km/h
Gust
km/h
Spd
kts
Gust
kts
20/11:30pm - - - - - NNE 13 19 7 10 - - -
20/11:00pm - - - - - NNE 13 19 7 10 - - -
20/10:30pm - - - - - NNE 17 22 9 12 - - -
20/10:00pm - - - - - NNE 19 24 10 13 - - -
20/09:30pm - - - - - NE 19 24 10 13 - - -
20/09:00pm - - - - - NE 19 28 10 15 - - -
20/08:30pm - - - - - NE 17 22 9 12 - - -
20/08:00pm - - - - - NNE 15 24 8 13 - - -
20/07:30pm - - - - - NNE 17 26 9 14 - - -
20/07:00pm - - - - - NNE 13 24 7 13 - - -
20/06:30pm - - - - - NNE 15 24 8 13 - - -
20/06:00pm - - - - - NNE 20 28 11 15 - - -
20/05:30pm - - - - - NNE 20 28 11 15 - - -
20/05:00pm - - - - - NNE 20 28 11 15 - - -

Other Formats:

Comma delimited format used in spreadsheet applications
http://www.bom.gov.au/fwo/IDN60801/IDN60801.95768.axf

JavaScript Object Notation format (JSON) in row-major order
http://www.bom.gov.au/fwo/IDN60801/IDN60801.95768.json